Time;durP1;ratioP1;P1;durP2;ratioP2;P2;SDS_P1;SDS_P2;PMS_P1;PMS_P2;Temp;Humidity;BMP_temperature;BMP_pressure;BME280_temperature;BME280_humidity;BME280_pressure;Samples;Min_cycle;Max_cycle;Signal;HPM_P1;HPM_P2
2021/10/27 00:01:23;;;;;;;3.77;2.73;;;14.20;95.80;;;;;;5097038;28;20836;-70
2021/10/27 00:03:49;;;;;;;4.87;3.70;;;14.20;95.80;;;;;;5096992;28;20451;-70
2021/10/27 00:06:17;;;;;;;3.03;2.40;;;14.20;95.80;;;;;;5096936;28;20486;-70
2021/10/27 00:08:43;;;;;;;3.40;2.80;;;14.30;95.90;;;;;;5096971;28;20451;-70
2021/10/27 00:11:10;;;;;;;5.37;2.40;;;14.30;95.80;;;;;;5096759;28;20467;-70
2021/10/27 00:13:37;;;;;;;7.53;3.40;;;14.30;95.80;;;;;;5096885;28;20460;-70
2021/10/27 00:16:06;;;;;;;4.53;2.60;;;14.30;95.70;;;;;;5096774;28;20442;-70
2021/10/27 00:18:33;;;;;;;3.37;3.07;;;14.30;95.70;;;;;;5096784;28;20564;-70
2021/10/27 00:21:00;;;;;;;3.50;2.73;;;14.30;95.70;;;;;;5096655;28;20463;-69
2021/10/27 00:23:26;;;;;;;4.80;2.50;;;14.30;95.60;;;;;;5096654;28;20432;-70
2021/10/27 00:25:53;;;;;;;3.37;2.70;;;14.30;95.80;;;;;;5096172;28;20997;-70
2021/10/27 00:28:20;;;;;;;5.77;2.83;;;14.30;95.90;;;;;;5096507;28;20447;-70
2021/10/27 00:30:46;;;;;;;2.83;2.60;;;14.30;95.90;;;;;;5096462;28;20464;-70
2021/10/27 00:33:16;;;;;;;4.73;3.17;;;14.30;96.20;;;;;;5096439;28;20447;-70
2021/10/27 00:35:43;;;;;;;6.00;2.77;;;14.30;95.80;;;;;;5096787;28;20439;-70
2021/10/27 00:38:10;;;;;;;10.73;2.93;;;14.30;95.60;;;;;;5096238;28;20459;-70
2021/10/27 00:40:36;;;;;;;3.93;3.10;;;14.30;95.60;;;;;;5095988;28;20976;-70
2021/10/27 00:43:03;;;;;;;8.33;3.50;;;14.40;95.60;;;;;;5096300;28;20456;-70
2021/10/27 00:45:30;;;;;;;10.07;3.10;;;14.40;95.50;;;;;;5096175;28;20452;-70
2021/10/27 00:47:57;;;;;;;5.03;2.30;;;14.40;95.40;;;;;;5095880;28;20957;-70
2021/10/27 00:50:25;;;;;;;5.40;3.13;;;14.40;95.30;;;;;;5096083;28;20832;-70
2021/10/27 00:52:51;;;;;;;5.00;2.97;;;14.30;95.20;;;;;;5096081;28;20454;-70
2021/10/27 00:55:19;;;;;;;5.07;2.70;;;14.30;95.30;;;;;;5096149;28;20433;-70
2021/10/27 00:57:46;;;;;;;4.83;2.60;;;14.20;95.30;;;;;;5096034;28;20813;-70
2021/10/27 01:00:14;;;;;;;3.50;3.13;;;14.30;95.40;;;;;;5095563;28;20494;-70
2021/10/27 01:02:41;;;;;;;5.03;2.90;;;14.30;95.50;;;;;;5094669;28;20465;-70
2021/10/27 01:05:08;;;;;;;5.20;2.40;;;14.30;95.50;;;;;;5095538;28;20445;-70
2021/10/27 01:07:36;;;;;;;2.90;2.60;;;14.30;95.50;;;;;;5095665;28;20495;-70
2021/10/27 01:10:04;;;;;;;5.70;2.73;;;14.30;95.50;;;;;;5095752;28;20893;-70
2021/10/27 01:12:31;;;;;;;3.67;2.80;;;14.30;95.50;;;;;;5095405;28;20455;-70
2021/10/27 01:14:57;;;;;;;5.53;3.40;;;14.30;95.40;;;;;;5095679;28;20538;-70
2021/10/27 01:17:24;;;;;;;4.93;3.33;;;14.30;95.50;;;;;;5094994;28;20436;-70
2021/10/27 01:19:55;;;;;;;3.57;3.03;;;14.30;95.40;;;;;;5095220;28;20667;-70
2021/10/27 01:22:24;;;;;;;3.13;2.87;;;14.30;95.40;;;;;;5095868;28;20424;-71
2021/10/27 01:24:51;;;;;;;4.57;3.00;;;14.20;95.50;;;;;;5095558;28;20424;-71
2021/10/27 01:27:18;;;;;;;7.30;3.60;;;14.20;95.50;;;;;;5095336;28;20475;-70
2021/10/27 01:29:44;;;;;;;6.80;2.93;;;14.20;95.40;;;;;;5095430;28;20448;-70
2021/10/27 01:32:21;;;;;;;4.20;3.30;;;14.10;95.40;;;;;;5095296;28;20447;-70
2021/10/27 01:34:48;;;;;;;5.20;3.57;;;14.10;95.50;;;;;;5095039;28;20424;-70
2021/10/27 01:37:16;;;;;;;9.07;3.30;;;14.10;95.40;;;;;;5094849;28;20456;-70
2021/10/27 01:39:43;;;;;;;10.10;4.70;;;14.10;95.40;;;;;;5095295;28;20546;-70
2021/10/27 01:42:10;;;;;;;7.37;3.60;;;14.10;95.40;;;;;;5094901;28;20953;-70
2021/10/27 01:44:37;;;;;;;6.90;2.90;;;14.10;95.40;;;;;;5095668;28;20451;-70
2021/10/27 01:47:04;;;;;;;6.53;3.03;;;14.00;95.30;;;;;;5094967;28;20475;-70
2021/10/27 01:49:31;;;;;;;5.80;3.17;;;14.10;95.60;;;;;;5095024;28;20452;-70
2021/10/27 01:51:58;;;;;;;6.47;3.70;;;14.10;95.10;;;;;;5094591;28;20840;-70
2021/10/27 01:54:27;;;;;;;4.67;3.20;;;14.10;95.20;;;;;;5095025;28;20532;-70
2021/10/27 01:56:53;;;;;;;9.13;4.03;;;14.00;95.10;;;;;;5094587;28;20929;-70
2021/10/27 01:59:20;;;;;;;5.93;4.63;;;14.00;95.20;;;;;;5094828;28;20470;-70
2021/10/27 02:01:47;;;;;;;8.70;4.43;;;14.00;95.20;;;;;;5094436;28;21023;-70
2021/10/27 02:04:14;;;;;;;6.90;4.70;;;14.00;95.10;;;;;;5094452;28;20431;-70
2021/10/27 02:06:41;;;;;;;10.37;4.97;;;14.00;95.00;;;;;;5094820;28;20545;-70
2021/10/27 02:09:08;;;;;;;8.50;4.77;;;14.00;95.00;;;;;;5094640;28;20451;-70
2021/10/27 02:11:36;;;;;;;6.47;4.23;;;14.00;95.00;;;;;;5094534;28;20459;-70
2021/10/27 02:14:03;;;;;;;10.30;4.53;;;14.00;94.90;;;;;;5094181;28;20455;-70
2021/10/27 02:16:30;;;;;;;11.67;4.63;;;14.00;95.00;;;;;;5094515;28;20440;-70
2021/10/27 02:18:57;;;;;;;8.60;4.50;;;14.00;95.00;;;;;;5094470;28;20448;-70
2021/10/27 02:21:24;;;;;;;10.03;4.40;;;13.90;95.30;;;;;;5094027;28;20846;-70
2021/10/27 02:23:51;;;;;;;6.80;4.47;;;13.90;95.00;;;;;;5094110;28;20937;-70
2021/10/27 02:26:18;;;;;;;8.30;3.83;;;13.90;95.10;;;;;;5095065;28;20479;-70
2021/10/27 02:28:47;;;;;;;6.67;3.60;;;14.00;95.20;;;;;;5094410;28;20463;-70
2021/10/27 02:31:14;;;;;;;14.07;4.20;;;14.00;95.30;;;;;;5094183;28;20463;-70
2021/10/27 02:33:40;;;;;;;10.27;3.47;;;14.00;95.30;;;;;;5093922;28;20451;-70
2021/10/27 02:36:07;;;;;;;9.93;5.27;;;14.00;95.30;;;;;;5094015;28;20459;-70
2021/10/27 02:38:34;;;;;;;10.07;4.60;;;14.00;95.70;;;;;;5093850;28;20435;-70
2021/10/27 02:41:01;;;;;;;5.67;4.37;;;14.00;95.30;;;;;;5093989;28;20464;-70
2021/10/27 02:43:27;;;;;;;8.10;4.50;;;14.10;95.30;;;;;;5094010;28;20450;-70
2021/10/27 02:45:55;;;;;;;6.77;4.07;;;14.10;95.20;;;;;;5093978;28;20440;-70
2021/10/27 02:48:22;;;;;;;10.30;4.53;;;14.10;95.20;;;;;;5093544;28;20478;-70
2021/10/27 02:50:49;;;;;;;8.63;4.83;;;14.10;95.10;;;;;;5093857;28;20471;-69
2021/10/27 02:53:16;;;;;;;10.70;4.13;;;14.10;95.10;;;;;;5093888;28;20450;-70
2021/10/27 02:55:43;;;;;;;9.90;4.27;;;14.10;95.10;;;;;;5093533;28;20956;-70
2021/10/27 02:58:09;;;;;;;11.97;4.13;;;14.20;95.20;;;;;;5093777;28;20440;-70
2021/10/27 03:00:36;;;;;;;7.77;3.97;;;14.10;95.20;;;;;;5093683;28;20824;-70
2021/10/27 03:03:04;;;;;;;14.27;5.20;;;14.10;95.10;;;;;;5093728;28;20475;-70
2021/10/27 03:05:32;;;;;;;5.90;4.40;;;14.20;95.30;;;;;;5093400;28;20949;-70
2021/10/27 03:07:59;;;;;;;6.47;3.60;;;14.10;95.20;;;;;;5093644;28;20577;-70
2021/10/27 03:10:26;;;;;;;10.83;5.07;;;14.20;95.20;;;;;;5093321;28;20843;-70
2021/10/27 03:12:53;;;;;;;9.83;5.00;;;14.20;95.10;;;;;;5093308;28;20476;-70
2021/10/27 03:15:20;;;;;;;13.47;5.50;;;14.20;95.10;;;;;;5093634;28;20444;-70
2021/10/27 03:17:46;;;;;;;9.10;4.60;;;14.20;95.00;;;;;;5093597;28;20840;-70
2021/10/27 03:20:15;;;;;;;11.97;4.50;;;14.30;94.90;;;;;;5093242;28;21020;-70
2021/10/27 03:22:41;;;;;;;11.43;4.13;;;14.30;94.90;;;;;;5093208;28;20963;-70
2021/10/27 03:25:09;;;;;;;12.87;5.67;;;14.30;94.90;;;;;;5094785;28;20458;-70
2021/10/27 03:27:36;;;;;;;7.80;4.37;;;14.30;94.80;;;;;;5097757;28;20471;-70
2021/10/27 03:30:03;;;;;;;8.97;5.13;;;14.30;94.80;;;;;;5097625;28;20439;-70
2021/10/27 03:32:30;;;;;;;6.47;5.00;;;14.30;94.70;;;;;;5097648;28;20793;-70
2021/10/27 03:34:57;;;;;;;12.23;6.20;;;14.20;94.70;;;;;;5097663;28;20869;-70
2021/10/27 03:37:25;;;;;;;11.90;6.10;;;14.30;94.70;;;;;;5097577;28;20455;-70
2021/10/27 03:39:52;;;;;;;6.50;5.40;;;14.20;94.60;;;;;;5097456;28;20448;-70
2021/10/27 03:42:19;;;;;;;5.90;5.20;;;14.30;94.70;;;;;;5097519;28;20447;-70
2021/10/27 03:44:46;;;;;;;9.90;5.70;;;14.30;94.60;;;;;;5097422;28;20452;-70
2021/10/27 03:47:13;;;;;;;9.63;6.47;;;14.30;94.60;;;;;;5096954;28;20987;-70
2021/10/27 03:49:39;;;;;;;8.67;5.77;;;14.30;94.50;;;;;;5097344;28;20448;-70
2021/10/27 03:52:07;;;;;;;11.67;5.80;;;14.30;94.60;;;;;;5097259;28;20487;-70
2021/10/27 03:54:35;;;;;;;11.57;6.83;;;14.30;94.50;;;;;;5097378;28;20435;-70
2021/10/27 03:57:01;;;;;;;6.97;6.27;;;14.20;94.50;;;;;;5097153;28;20471;-70
2021/10/27 03:59:28;;;;;;;10.27;6.83;;;14.20;94.50;;;;;;5096925;28;20455;-70
2021/10/27 04:01:55;;;;;;;7.70;6.13;;;14.20;94.50;;;;;;5097045;28;20474;-70
2021/10/27 04:04:22;;;;;;;8.43;6.10;;;14.20;94.50;;;;;;5097307;28;20479;-70
2021/10/27 04:06:48;;;;;;;9.93;6.13;;;14.30;94.40;;;;;;5096939;28;20487;-70
2021/10/27 04:09:15;;;;;;;15.60;7.47;;;14.30;94.40;;;;;;5096475;28;20427;-70
2021/10/27 04:11:43;;;;;;;10.87;7.10;;;14.30;94.30;;;;;;5096873;28;20222;-70
2021/10/27 04:14:10;;;;;;;11.23;6.10;;;14.20;94.30;;;;;;5096566;28;20443;-70
2021/10/27 04:16:37;;;;;;;9.07;6.37;;;14.20;94.30;;;;;;5096872;28;20448;-70
2021/10/27 04:19:03;;;;;;;12.27;6.50;;;14.30;94.20;;;;;;5096462;28;20955;-70
2021/10/27 04:21:30;;;;;;;10.17;5.40;;;14.20;94.20;;;;;;5096770;28;20529;-70
2021/10/27 04:23:57;;;;;;;13.70;6.30;;;14.20;94.20;;;;;;5096525;28;20452;-70
2021/10/27 04:26:24;;;;;;;12.10;7.00;;;14.20;94.20;;;;;;5097413;28;20521;-72
2021/10/27 04:28:53;;;;;;;8.43;6.07;;;14.20;94.30;;;;;;5096576;28;20544;-71
2021/10/27 04:31:20;;;;;;;7.43;6.73;;;14.20;94.20;;;;;;5096548;28;20566;-71
2021/10/27 04:33:47;;;;;;;12.70;7.23;;;14.20;94.20;;;;;;5096314;28;20933;-71
2021/10/27 04:36:15;;;;;;;11.03;6.67;;;14.20;94.10;;;;;;5095834;28;20540;-71
2021/10/27 04:38:41;;;;;;;7.20;5.97;;;14.20;94.10;;;;;;5096446;28;20428;-71
2021/10/27 04:41:08;;;;;;;6.60;6.03;;;14.20;94.10;;;;;;5096508;28;20464;-71
2021/10/27 04:43:35;;;;;;;7.77;6.70;;;14.10;94.00;;;;;;5096283;28;20446;-71
2021/10/27 04:46:03;;;;;;;10.33;6.00;;;14.10;94.20;;;;;;5096434;28;20459;-71
2021/10/27 04:48:30;;;;;;;8.70;5.97;;;14.10;94.10;;;;;;5096271;28;20838;-71
2021/10/27 04:50:56;;;;;;;6.73;5.30;;;14.10;94.20;;;;;;5095767;28;20976;-71
2021/10/27 04:53:25;;;;;;;8.67;5.87;;;14.10;94.20;;;;;;5096041;28;20812;-71
2021/10/27 04:55:52;;;;;;;5.90;5.20;;;14.10;94.10;;;;;;5095867;28;20803;-71
2021/10/27 04:58:20;;;;;;;10.47;6.60;;;14.10;94.10;;;;;;5096114;28;20455;-71
2021/10/27 05:00:47;;;;;;;7.60;5.33;;;14.10;94.10;;;;;;5095672;28;20471;-72
2021/10/27 05:03:15;;;;;;;9.80;5.70;;;14.10;94.10;;;;;;5095919;28;20456;-72
2021/10/27 05:05:46;;;;;;;6.50;5.90;;;14.10;94.00;;;;;;5095904;28;20458;-72
2021/10/27 05:08:15;;;;;;;6.93;6.20;;;14.10;93.90;;;;;;5095824;28;20472;-72
2021/10/27 05:10:42;;;;;;;7.63;6.03;;;14.20;94.00;;;;;;5096155;28;20467;-71
2021/10/27 05:13:08;;;;;;;6.97;5.80;;;14.20;94.00;;;;;;5095844;28;20435;-72
2021/10/27 05:15:35;;;;;;;12.30;5.83;;;14.20;94.00;;;;;;5095661;28;20832;-71
2021/10/27 05:18:02;;;;;;;9.70;5.77;;;14.20;94.00;;;;;;5095737;28;20444;-71
2021/10/27 05:20:30;;;;;;;10.20;5.60;;;14.20;94.00;;;;;;5095598;28;20823;-71
2021/10/27 05:22:57;;;;;;;7.10;5.93;;;14.20;93.90;;;;;;5095607;28;20447;-71
2021/10/27 05:25:24;;;;;;;8.87;6.77;;;14.20;93.90;;;;;;5095638;28;20450;-72
2021/10/27 05:27:51;;;;;;;8.80;6.20;;;14.20;93.70;;;;;;5095766;28;20479;-71
2021/10/27 05:30:18;;;;;;;7.83;6.40;;;14.20;93.70;;;;;;5095844;28;20548;-71
2021/10/27 05:32:45;;;;;;;12.40;7.60;;;14.30;93.70;;;;;;5095704;28;20440;-71
2021/10/27 05:35:11;;;;;;;9.93;7.13;;;14.20;93.60;;;;;;5095580;28;20803;-71
2021/10/27 05:37:40;;;;;;;9.53;7.23;;;14.20;93.60;;;;;;5095401;28;20452;-71
2021/10/27 05:40:07;;;;;;;8.60;7.37;;;14.20;93.50;;;;;;5095334;28;20432;-71
2021/10/27 05:42:35;;;;;;;9.77;7.50;;;14.20;93.60;;;;;;5095155;28;20446;-71
2021/10/27 05:45:04;;;;;;;9.53;7.80;;;14.20;93.60;;;;;;5095170;28;20813;-71
2021/10/27 05:47:31;;;;;;;10.17;6.93;;;14.20;93.60;;;;;;5094413;28;20483;-71
2021/10/27 05:50:09;;;;;;;10.30;6.00;;;14.20;93.70;;;;;;5094863;28;20813;-70
2021/10/27 05:55:32;;;;;;;6.70;5.93;;;14.20;93.70;;;;;;5094853;28;20943;-70
2021/10/27 05:57:59;;;;;;;7.63;6.33;;;14.20;93.70;;;;;;5094392;28;20894;-70
2021/10/27 06:00:26;;;;;;;7.53;6.13;;;14.20;93.70;;;;;;5094556;28;20516;-70
2021/10/27 06:02:53;;;;;;;10.30;6.73;;;14.20;93.60;;;;;;5094764;28;20447;-70
2021/10/27 06:05:19;;;;;;;10.60;6.30;;;14.20;93.60;;;;;;5095115;28;20508;-71
2021/10/27 06:07:47;;;;;;;9.10;6.67;;;14.20;93.60;;;;;;5094649;28;20475;-71
2021/10/27 06:10:19;;;;;;;6.73;6.03;;;14.20;93.60;;;;;;5094483;28;20463;-71
2021/10/27 06:12:48;;;;;;;7.87;6.80;;;14.20;93.60;;;;;;5094484;28;20436;-71
2021/10/27 06:15:17;;;;;;;8.87;7.17;;;14.20;93.60;;;;;;5094375;28;20443;-71
2021/10/27 06:17:44;;;;;;;9.20;6.60;;;14.20;93.60;;;;;;5094319;28;20444;-71
2021/10/27 06:20:11;;;;;;;12.40;7.50;;;14.20;93.50;;;;;;5094243;28;20471;-71
2021/10/27 06:22:38;;;;;;;7.00;6.00;;;14.10;93.40;;;;;;5094586;28;20470;-71
2021/10/27 06:25:08;;;;;;;13.20;8.00;;;14.10;93.40;;;;;;5094230;28;20444;-71
2021/10/27 06:27:35;;;;;;;6.87;6.27;;;14.20;93.50;;;;;;5093782;28;21049;-71
2021/10/27 06:30:08;;;;;;;9.50;7.00;;;14.10;93.40;;;;;;5095195;28;20452;-73
2021/10/27 06:32:37;;;;;;;8.67;7.20;;;14.20;93.40;;;;;;5094145;28;20436;-72
2021/10/27 06:35:09;;;;;;;10.57;7.50;;;14.20;93.40;;;;;;5094020;28;20800;-72
2021/10/27 06:48:37;;;;;;;6.83;5.90;;;14.20;93.30;;;;;;5086543;28;20995;-71
2021/10/27 06:51:04;;;;;;;11.37;6.60;;;14.20;93.20;;;;;;5094096;28;20474;-72
2021/10/27 06:53:32;;;;;;;6.43;5.80;;;14.10;93.00;;;;;;5093909;28;20450;-72
2021/10/27 06:56:00;;;;;;;8.73;6.53;;;14.10;93.10;;;;;;5093779;28;20486;-72
2021/10/27 06:58:31;;;;;;;7.50;6.07;;;14.20;93.20;;;;;;5093932;28;20518;-72
2021/10/27 07:01:01;;;;;;;7.93;5.67;;;14.20;93.00;;;;;;5093749;28;20468;-71
2021/10/27 07:03:42;;;;;;;10.60;5.50;;;14.20;92.90;;;;;;5093345;28;20957;-72
2021/10/27 07:17:06;;;;;;;5.13;4.60;;;14.20;92.50;;;;;;5093832;28;20422;-71
2021/10/27 07:19:33;;;;;;;6.83;4.50;;;14.20;92.40;;;;;;5093935;28;20515;-71
2021/10/27 07:21:59;;;;;;;4.40;4.00;;;14.30;92.40;;;;;;5093520;28;20464;-71
2021/10/27 07:24:27;;;;;;;5.23;3.70;;;14.30;92.40;;;;;;5093708;28;20440;-71
2021/10/27 07:26:58;;;;;;;8.67;3.20;;;14.40;92.40;;;;;;5093570;28;20447;-71
2021/10/27 07:29:25;;;;;;;4.50;3.33;;;14.40;92.20;;;;;;5093243;28;20471;-71
2021/10/27 07:31:51;;;;;;;4.30;3.63;;;14.40;92.30;;;;;;5093742;28;20803;-71
2021/10/27 07:34:29;;;;;;;4.97;3.27;;;14.40;91.90;;;;;;5093448;28;20459;-71
2021/10/27 07:39:56;;;;;;;7.27;3.73;;;14.40;91.90;;;;;;5093740;28;20469;-71
2021/10/27 07:42:24;;;;;;;4.60;3.53;;;14.50;91.90;;;;;;5093410;28;20442;-72
2021/10/27 07:44:50;;;;;;;7.10;3.50;;;14.50;91.70;;;;;;5093193;28;20937;-72
2021/10/27 07:47:18;;;;;;;3.80;2.90;;;14.60;91.60;;;;;;5092979;28;20936;-72
2021/10/27 07:49:47;;;;;;;5.40;3.10;;;14.60;91.50;;;;;;5093281;28;20936;-72
2021/10/27 07:52:15;;;;;;;7.63;2.80;;;14.70;91.40;;;;;;5092926;28;20986;-72
2021/10/27 07:54:42;;;;;;;5.20;2.90;;;14.70;91.30;;;;;;5093270;28;20930;-72
2021/10/27 07:57:08;;;;;;;9.23;3.10;;;14.70;91.20;;;;;;5093562;28;20779;-72
2021/10/27 07:59:35;;;;;;;7.23;2.37;;;14.70;91.10;;;;;;5093230;28;20448;-72
2021/10/27 08:02:04;;;;;;;6.10;2.90;;;14.70;91.00;;;;;;5093189;28;20516;-72
2021/10/27 08:04:31;;;;;;;6.57;2.60;;;14.80;90.90;;;;;;5093135;28;20483;-72
2021/10/27 08:06:59;;;;;;;3.80;2.60;;;14.80;90.90;;;;;;5093379;28;20444;-72
2021/10/27 08:09:26;;;;;;;6.23;2.60;;;14.80;90.90;;;;;;5092986;28;20486;-72
2021/10/27 08:11:52;;;;;;;5.73;2.50;;;14.90;90.60;;;;;;5095409;28;20459;-72
2021/10/27 08:14:19;;;;;;;7.50;2.87;;;14.90;90.70;;;;;;5096848;28;20447;-72
2021/10/27 08:16:46;;;;;;;6.70;2.60;;;15.00;90.60;;;;;;5096786;28;20446;-72
2021/10/27 08:19:13;;;;;;;5.50;2.30;;;15.00;90.50;;;;;;5096441;28;20933;-72
2021/10/27 08:21:41;;;;;;;4.93;2.20;;;15.00;90.10;;;;;;5096640;28;20460;-71
2021/10/27 08:24:12;;;;;;;6.70;2.93;;;15.10;90.20;;;;;;5096697;28;20782;-71
2021/10/27 08:26:46;;;;;;;7.90;2.30;;;15.20;90.00;;;;;;5096392;28;20438;-72
2021/10/27 08:29:14;;;;;;;7.40;2.43;;;15.20;89.70;;;;;;5097092;28;20467;-72
2021/10/27 08:31:42;;;;;;;4.53;2.23;;;15.30;89.20;;;;;;5096478;28;20463;-71
2021/10/27 08:34:14;;;;;;;4.20;2.40;;;15.30;88.40;;;;;;5096436;28;20535;-71
2021/10/27 08:36:42;;;;;;;8.40;3.40;;;15.30;88.40;;;;;;5096064;28;20971;-71
2021/10/27 08:39:11;;;;;;;10.10;2.60;;;15.40;88.60;;;;;;5096429;28;20436;-72
2021/10/27 08:41:40;;;;;;;2.67;1.60;;;15.40;88.10;;;;;;5096476;28;20567;-72
2021/10/27 08:44:07;;;;;;;4.33;2.10;;;15.40;87.90;;;;;;5096453;28;20455;-72
2021/10/27 08:46:35;;;;;;;6.53;1.90;;;15.40;87.90;;;;;;5096444;28;20447;-72
2021/10/27 08:49:04;;;;;;;5.27;2.27;;;15.50;88.20;;;;;;5096130;28;20854;-72
2021/10/27 08:51:33;;;;;;;8.00;2.90;;;15.50;88.20;;;;;;5096142;28;20468;-72
2021/10/27 08:53:59;;;;;;;6.43;2.80;;;15.50;88.30;;;;;;5095844;28;20945;-72
2021/10/27 08:56:27;;;;;;;7.20;2.30;;;15.50;88.20;;;;;;5096110;28;20448;-72
2021/10/27 08:58:59;;;;;;;4.73;2.30;;;15.50;88.00;;;;;;5096270;28;20906;-72
2021/10/27 09:01:36;;;;;;;5.00;2.30;;;15.50;88.20;;;;;;5095943;28;20456;-72
2021/10/27 09:04:21;;;;;;;9.27;3.00;;;15.60;88.30;;;;;;5095945;28;20447;-72
2021/10/27 09:07:05;;;;;;;6.30;2.37;;;15.60;88.30;;;;;;5095854;28;20436;-72
2021/10/27 09:09:54;;;;;;;4.73;2.10;;;15.70;88.40;;;;;;5095820;28;20463;-72
2021/10/27 09:15:42;;;;;;;3.97;2.37;;;15.70;87.30;;;;;;5095856;28;20407;-72
2021/10/27 09:35:10;;;;;;;4.03;2.23;;;16.00;86.10;;;;;;5095511;28;20427;-72
2021/10/27 09:38:06;;;;;;;4.90;2.27;;;16.10;86.00;;;;;;5095173;28;20466;-72
2021/10/27 09:40:58;;;;;;;6.30;1.70;;;16.10;85.90;;;;;;5095151;28;20563;-72
2021/10/27 10:06:22;;;;;;;5.57;2.40;;;17.70;79.20;;;;;;5070616;28;20962;-72
2021/10/27 10:08:50;;;;;;;4.83;1.83;;;17.90;78.50;;;;;;5070262;28;20491;-71
2021/10/27 10:11:19;;;;;;;3.30;1.80;;;18.20;77.50;;;;;;5070423;28;20503;-71
2021/10/27 10:13:47;;;;;;;6.97;2.30;;;18.40;77.00;;;;;;5070096;28;20452;-71
2021/10/27 10:16:15;;;;;;;2.93;1.63;;;18.60;75.20;;;;;;5070372;28;20483;-73
2021/10/27 10:18:46;;;;;;;6.00;2.17;;;18.70;74.80;;;;;;5069903;28;20448;-72
2021/10/27 10:21:13;;;;;;;4.23;1.33;;;18.80;73.50;;;;;;5070168;28;20476;-72
2021/10/27 10:23:40;;;;;;;4.70;1.80;;;18.80;72.90;;;;;;5070400;28;20480;-72
2021/10/27 10:26:08;;;;;;;4.30;2.27;;;18.70;72.20;;;;;;5069858;28;20874;-72
2021/10/27 10:28:39;;;;;;;4.53;1.73;;;18.70;72.80;;;;;;5070029;28;20463;-72
2021/10/27 10:31:07;;;;;;;5.93;1.90;;;18.70;72.80;;;;;;5070014;28;20465;-72
2021/10/27 10:33:42;;;;;;;3.13;1.67;;;18.80;73.00;;;;;;5069983;28;20476;-72
2021/10/27 10:36:26;;;;;;;4.83;1.70;;;18.90;73.40;;;;;;5069963;28;20465;-72
2021/10/27 10:39:24;;;;;;;9.00;2.30;;;18.90;72.80;;;;;;5069912;28;20436;-72
2021/10/27 10:41:59;;;;;;;3.37;2.00;;;19.00;73.10;;;;;;5069320;28;21039;-72
2021/10/27 11:22:37;;;;;;;7.47;1.70;;;23.70;54.50;;;;;;5055695;28;20432;-72
2021/10/27 11:25:12;;;;;;;5.20;2.30;;;24.20;53.60;;;;;;5055688;28;20850;-72
2021/10/27 11:37:16;;;;;;;4.63;2.40;;;24.40;52.20;;;;;;5055773;28;20461;-72
2021/10/27 11:39:30;;;;;;;8.30;1.80;;;25.70;48.80;;;;;;5055401;28;20853;-72
2021/10/27 11:42:03;;;;;;;5.07;1.40;;;25.70;48.20;;;;;;5055381;28;20597;-72
2021/10/27 11:44:43;;;;;;;3.80;1.77;;;25.60;47.30;;;;;;5055193;28;20454;-72
2021/10/27 11:47:11;;;;;;;3.30;1.53;;;25.50;47.40;;;;;;5055583;28;20433;-72
2021/10/27 11:49:42;;;;;;;3.13;1.33;;;25.30;47.40;;;;;;5055374;28;20935;-72
2021/10/27 11:52:09;;;;;;;3.07;1.00;;;24.80;47.80;;;;;;5056094;28;20473;-73
2021/10/27 11:54:36;;;;;;;4.83;1.50;;;24.80;48.70;;;;;;5055285;28;20799;-72
2021/10/27 11:57:04;;;;;;;4.83;1.27;;;24.90;49.10;;;;;;5055209;28;20438;-72
2021/10/27 11:59:45;;;;;;;3.13;1.00;;;25.00;47.70;;;;;;5055032;28;20454;-72
2021/10/27 12:02:12;;;;;;;4.17;1.50;;;25.10;47.10;;;;;;5055144;28;20531;-72
2021/10/27 12:04:40;;;;;;;7.50;1.40;;;25.10;47.00;;;;;;5055120;28;20495;-72
2021/10/27 12:07:17;;;;;;;2.03;1.23;;;25.10;46.90;;;;;;5055048;28;20458;-73
2021/10/27 12:10:05;;;;;;;5.43;1.63;;;24.90;47.20;;;;;;5054341;28;20441;-73
2021/10/27 12:12:49;;;;;;;4.93;1.40;;;24.90;47.00;;;;;;5055019;28;20437;-72
2021/10/27 12:18:08;;;;;;;4.00;1.77;;;24.60;47.60;;;;;;5054936;28;20428;-72
2021/10/27 12:20:36;;;;;;;4.00;1.20;;;24.80;47.80;;;;;;5054748;28;20466;-72
2021/10/27 12:23:05;;;;;;;1.70;1.50;;;25.20;47.00;;;;;;5054795;28;20465;-72
2021/10/27 12:25:32;;;;;;;5.43;1.40;;;25.70;45.90;;;;;;5054633;28;20481;-72
2021/10/27 12:28:03;;;;;;;3.47;1.30;;;25.90;44.70;;;;;;5054339;28;20936;-72
2021/10/27 12:30:40;;;;;;;4.40;1.20;;;26.10;44.80;;;;;;5054550;28;20509;-72
2021/10/27 12:33:07;;;;;;;2.80;1.40;;;26.40;44.00;;;;;;5054535;28;20491;-72
2021/10/27 12:35:34;;;;;;;2.80;1.00;;;26.20;44.40;;;;;;5054416;28;20440;-72
2021/10/27 12:38:13;;;;;;;3.83;1.50;;;26.10;45.30;;;;;;5054430;28;20433;-72
2021/10/27 12:40:41;;;;;;;4.73;2.17;;;25.90;45.00;;;;;;5054037;28;20964;-72
2021/10/27 12:43:10;;;;;;;2.10;1.17;;;25.40;45.50;;;;;;5054312;28;20449;-72
2021/10/27 12:45:40;;;;;;;2.23;1.20;;;24.70;46.50;;;;;;5054069;28;20489;-72
2021/10/27 12:48:09;;;;;;;5.17;1.77;;;24.40;47.70;;;;;;5054197;28;20492;-72
2021/10/27 12:50:36;;;;;;;3.70;1.43;;;24.10;49.10;;;;;;5054172;28;20465;-72
2021/10/27 12:53:05;;;;;;;2.33;1.30;;;24.10;50.20;;;;;;5054156;28;20450;-72
2021/10/27 12:55:33;;;;;;;2.50;1.37;;;24.30;50.00;;;;;;5054146;28;20449;-72
2021/10/27 12:58:04;;;;;;;3.43;1.30;;;24.20;49.60;;;;;;5054074;28;20516;-72
2021/10/27 13:00:49;;;;;;;3.37;1.40;;;24.10;50.20;;;;;;5053967;28;20487;-72
2021/10/27 13:03:28;;;;;;;2.40;1.23;;;23.70;50.10;;;;;;5053985;28;20435;-72
2021/10/27 13:06:03;;;;;;;3.80;1.70;;;23.30;51.30;;;;;;5053825;28;20465;-72
2021/10/27 13:11:29;;;;;;;5.23;1.80;;;22.70;52.00;;;;;;5042777;28;20974;-71
2021/10/27 13:14:04;;;;;;;3.93;1.90;;;22.20;53.20;;;;;;5053772;28;20430;-72
2021/10/27 13:19:26;;;;;;;4.00;1.50;;;21.50;55.30;;;;;;5053385;28;20436;-72
2021/10/27 13:22:07;;;;;;;4.97;2.00;;;21.80;56.00;;;;;;5053652;28;20461;-72
2021/10/27 13:30:22;;;;;;;2.40;1.27;;;24.10;51.60;;;;;;4995906;28;20791;-71
2021/10/27 13:36:11;;;;;;;3.67;1.60;;;24.90;48.90;;;;;;5053163;28;20437;-71
2021/10/27 13:38:38;;;;;;;4.07;1.30;;;25.60;48.00;;;;;;5053462;28;20430;-71
2021/10/27 13:41:07;;;;;;;3.97;1.70;;;26.10;46.50;;;;;;5053361;28;20476;-71
2021/10/27 13:43:37;;;;;;;5.13;1.40;;;26.50;45.50;;;;;;5053409;28;20927;-71
2021/10/27 14:08:16;;;;;;;5.77;1.40;;;25.30;46.30;;;;;;5053251;28;20887;-71
2021/10/27 14:10:46;;;;;;;4.83;1.40;;;25.00;46.60;;;;;;5052777;28;20474;-71
2021/10/27 14:13:21;;;;;;;2.10;1.20;;;24.40;46.80;;;;;;5053158;28;20483;-71
2021/10/27 15:20:06;;;;;;;5.13;1.33;;;19.10;62.50;;;;;;5090282;28;20448;-67
2021/10/27 15:22:49;;;;;;;3.23;1.63;;;19.10;62.90;;;;;;5090054;28;20518;-67
2021/10/27 15:25:33;;;;;;;4.17;1.50;;;19.10;63.70;;;;;;5090531;28;20440;-67
2021/10/27 15:28:13;;;;;;;1.93;1.37;;;19.00;64.10;;;;;;5090292;28;20439;-67
2021/10/27 15:30:48;;;;;;;2.57;1.10;;;19.00;64.80;;;;;;5090204;28;20552;-67
2021/10/27 15:33:24;;;;;;;3.20;1.20;;;18.90;64.60;;;;;;5090780;28;20439;-68
2021/10/27 15:36:10;;;;;;;4.40;1.50;;;18.90;64.60;;;;;;5090182;28;20432;-67
2021/10/27 15:44:13;;;;;;;2.20;1.40;;;18.70;65.40;;;;;;5087918;28;20443;-67
2021/10/27 15:52:14;;;;;;;2.50;1.33;;;18.70;65.80;;;;;;5089623;28;20881;-67
2021/10/27 15:54:44;;;;;;;2.07;1.27;;;18.60;65.90;;;;;;5076615;28;20429;-67
2021/10/27 15:57:11;;;;;;;2.00;1.10;;;18.60;66.00;;;;;;5076605;28;20447;-67
2021/10/27 15:59:39;;;;;;;2.67;1.77;;;18.60;66.30;;;;;;5076086;28;20445;-67
2021/10/27 16:02:06;;;;;;;2.30;1.30;;;18.50;66.40;;;;;;5075649;28;20897;-69
2021/10/27 16:04:37;;;;;;;5.40;1.13;;;18.50;66.70;;;;;;5076266;28;20484;-69
2021/10/27 16:07:06;;;;;;;2.10;1.13;;;18.50;67.10;;;;;;5076194;28;20432;-67
2021/10/27 16:09:38;;;;;;;5.10;1.40;;;18.40;67.60;;;;;;5075687;28;20930;-67
2021/10/27 16:12:06;;;;;;;3.50;1.30;;;18.30;67.50;;;;;;5075808;28;20949;-67
2021/10/27 16:14:32;;;;;;;4.27;1.73;;;18.30;67.90;;;;;;5075940;28;20449;-67
2021/10/27 16:16:59;;;;;;;2.57;1.20;;;18.20;67.30;;;;;;5076063;28;20433;-68
2021/10/27 16:19:26;;;;;;;3.20;0.97;;;18.20;67.50;;;;;;5075709;28;20832;-68
2021/10/27 16:21:56;;;;;;;3.57;1.50;;;18.10;68.00;;;;;;5075588;28;21000;-69
2021/10/27 16:24:24;;;;;;;2.30;1.63;;;18.10;68.40;;;;;;5075935;28;20535;-68
2021/10/27 16:26:51;;;;;;;2.83;1.33;;;18.00;68.70;;;;;;5075840;28;20439;-68
2021/10/27 16:29:18;;;;;;;5.53;1.33;;;18.00;70.00;;;;;;5076255;28;20429;-69
2021/10/27 16:31:45;;;;;;;4.57;1.40;;;18.00;70.40;;;;;;5076104;28;20567;-68
2021/10/27 16:34:13;;;;;;;3.73;1.50;;;18.00;70.50;;;;;;5075847;28;20443;-69
2021/10/27 16:36:42;;;;;;;2.00;1.33;;;18.00;70.50;;;;;;5075294;28;20449;-69
2021/10/27 16:39:11;;;;;;;3.37;1.87;;;18.10;70.60;;;;;;5075230;28;20453;-69
2021/10/27 16:41:38;;;;;;;3.87;2.00;;;18.10;70.60;;;;;;5075012;28;20476;-67
2021/10/27 16:44:07;;;;;;;8.43;1.93;;;18.00;70.30;;;;;;5075087;28;20848;-67
2021/10/27 16:46:34;;;;;;;6.73;1.43;;;18.00;70.50;;;;;;5075322;28;20448;-69
2021/10/27 16:49:01;;;;;;;1.93;1.23;;;18.00;70.50;;;;;;5075611;28;20444;-69